createdAt,value
2023-05-18T00:01:44.216Z,80.80
2023-05-18T00:06:48.770Z,79.65
2023-05-18T00:11:51.855Z,81.12
2023-05-18T00:16:55.103Z,80.55
2023-05-18T00:21:59.630Z,79.97
2023-05-18T00:27:02.835Z,80.72
2023-05-18T00:32:06.571Z,81.07
2023-05-18T00:37:11.054Z,81.76
2023-05-18T00:42:14.224Z,81.31
2023-05-18T00:47:18.565Z,80.96
2023-05-18T00:52:23.561Z,80.62
2023-05-18T00:57:27.030Z,82.42
2023-05-18T01:02:30.693Z,82.10
2023-05-18T01:07:35.597Z,81.69
2023-05-18T01:12:44.453Z,80.19
2023-05-18T01:18:00.762Z,81.27
2023-05-18T01:23:31.003Z,81.09
2023-05-18T01:28:35.789Z,80.34
2023-05-18T01:33:38.931Z,81.03
2023-05-18T01:38:44.300Z,79.96
2023-05-18T01:43:54.093Z,81.27
2023-05-18T01:49:02.545Z,80.34
2023-05-18T01:54:09.037Z,81.68
2023-05-18T01:59:16.164Z,80.92
2023-05-18T02:04:19.333Z,80.59
2023-05-18T02:09:22.622Z,82.36
2023-05-18T02:14:28.317Z,81.76
2023-05-18T02:19:32.076Z,81.42
2023-05-18T02:24:35.179Z,80.84
2023-05-18T02:29:41.161Z,81.09
2023-05-18T02:34:46.502Z,81.90
2023-05-18T02:39:49.717Z,81.37
2023-05-18T02:44:54.152Z,83.39
2023-05-18T02:49:57.336Z,85.00
2023-05-18T02:55:00.616Z,82.82
2023-05-18T03:00:23.599Z,83.75
2023-05-18T03:05:27.543Z,84.92
2023-05-18T03:10:30.666Z,85.49
2023-05-18T03:15:37.671Z,87.31
2023-05-18T03:20:40.966Z,86.76
2023-05-18T03:25:44.905Z,87.02
2023-05-18T03:30:52.058Z,85.49
2023-05-18T03:35:55.599Z,85.81
2023-05-18T03:40:58.944Z,87.34
2023-05-18T03:46:03.537Z,86.45
2023-05-18T03:51:06.882Z,88.96
2023-05-18T03:56:10.740Z,88.47
2023-05-18T04:01:15.223Z,91.79
2023-05-18T04:06:18.818Z,90.00
2023-05-18T04:11:22.602Z,88.95
2023-05-18T04:16:27.583Z,88.18
2023-05-18T04:21:36.297Z,91.00
2023-05-18T04:26:39.393Z,91.28
2023-05-18T04:31:45.022Z,90.39
2023-05-18T04:36:48.855Z,89.79
2023-05-18T04:41:58.092Z,88.92
2023-05-18T04:47:05.010Z,89.66
2023-05-18T04:52:11.611Z,88.15
2023-05-18T04:57:14.739Z,89.28
2023-05-18T05:02:19.578Z,87.63
2023-05-18T05:07:23.768Z,88.51
2023-05-18T05:12:26.990Z,87.04
2023-05-18T05:17:31.299Z,84.63
2023-05-18T05:22:34.451Z,85.42
2023-05-18T05:27:38.568Z,85.44
2023-05-18T05:32:43.169Z,85.32
2023-05-18T05:37:46.924Z,83.81
2023-05-18T05:42:51.152Z,83.66
2023-05-18T05:47:55.955Z,83.73
2023-05-18T05:53:00.735Z,82.82
2023-05-18T05:58:06.160Z,84.00
2023-05-18T06:03:10.881Z,82.84
2023-05-18T06:08:18.112Z,82.54
2023-05-18T06:13:23.316Z,83.08
2023-05-18T06:18:32.066Z,84.50
2023-05-18T06:23:41.682Z,83.07
2023-05-18T06:28:58.165Z,83.03
2023-05-18T06:34:14.204Z,84.60
2023-05-18T06:39:17.385Z,83.28
2023-05-18T06:44:20.852Z,81.84
2023-05-18T06:49:42.797Z,80.52
2023-05-18T06:54:46.245Z,81.83
2023-05-18T06:59:53.672Z,80.63
2023-05-18T07:04:58.813Z,78.33
2023-05-18T07:10:02.031Z,78.97
2023-05-18T07:15:06.005Z,77.84
2023-05-18T07:20:11.909Z,76.79
2023-05-18T07:25:14.992Z,75.05
2023-05-18T07:30:18.359Z,74.15
2023-05-18T07:35:22.920Z,71.19
2023-05-18T07:40:26.163Z,67.47
2023-05-18T07:45:29.573Z,65.82
2023-05-18T07:50:34.807Z,66.57
2023-05-18T07:55:37.857Z,64.56
2023-05-18T08:00:40.835Z,63.43
2023-05-18T08:05:45.425Z,61.79
2023-05-18T08:10:48.540Z,62.58
2023-05-18T08:16:02.908Z,63.21
2023-05-18T08:21:10.058Z,60.25
2023-05-18T08:26:14.138Z,60.05
2023-05-18T08:31:17.431Z,60.24
2023-05-18T08:36:22.042Z,60.36
2023-05-18T08:41:31.158Z,58.42
2023-05-18T08:46:36.629Z,57.80
2023-05-18T08:51:43.630Z,57.54
2023-05-18T08:56:48.446Z,58.01
2023-05-18T09:01:52.811Z,53.79
2023-05-18T09:07:00.276Z,56.71
2023-05-18T09:12:04.593Z,56.16
2023-05-18T09:17:10.101Z,58.07
2023-05-18T09:22:15.520Z,58.25
2023-05-18T09:27:19.968Z,57.19
2023-05-18T09:32:23.478Z,53.91
2023-05-18T09:37:28.902Z,52.33
2023-05-18T09:42:37.895Z,50.67
2023-05-18T09:47:40.970Z,50.24
2023-05-18T09:52:46.213Z,51.31
2023-05-18T09:57:50.876Z,53.92
2023-05-18T10:02:54.182Z,51.61
2023-05-18T10:07:59.094Z,52.67
2023-05-18T10:13:02.894Z,51.33
2023-05-18T10:18:08.943Z,48.07
2023-05-18T10:23:13.849Z,50.71
2023-05-18T10:28:24.487Z,50.98
2023-05-18T10:33:30.137Z,51.59
2023-05-18T10:38:39.058Z,49.62
2023-05-18T10:43:42.861Z,47.99
2023-05-18T10:48:51.503Z,48.68
2023-05-18T10:54:00.574Z,47.22
2023-05-18T10:59:04.895Z,46.19
2023-05-18T11:04:08.232Z,47.35
2023-05-18T11:09:23.947Z,47.40
2023-05-18T11:14:28.454Z,48.83
2023-05-18T11:19:32.638Z,48.32
2023-05-18T11:24:38.068Z,43.40
2023-05-18T11:29:45.073Z,44.77
2023-05-18T11:34:52.377Z,49.04
2023-05-18T11:40:00.656Z,48.92
2023-05-18T11:45:08.208Z,47.68
2023-05-18T11:50:12.970Z,45.71
2023-05-18T11:55:20.262Z,49.17
2023-05-18T12:00:26.072Z,46.40
2023-05-18T12:05:32.441Z,48.07
2023-05-18T12:10:37.894Z,47.16
2023-05-18T12:15:42.291Z,48.11
2023-05-18T12:20:46.957Z,45.07
2023-05-18T12:25:51.598Z,45.54
2023-05-18T12:30:58.756Z,43.52
2023-05-18T12:36:04.720Z,46.09
2023-05-18T12:41:09.647Z,48.42
2023-05-18T12:46:12.787Z,48.62
2023-05-18T12:51:19.950Z,42.55
2023-05-18T12:56:25.490Z,44.91
2023-05-18T13:01:29.229Z,48.26
2023-05-18T13:06:32.514Z,49.83
2023-05-18T13:11:37.221Z,45.50
2023-05-18T13:16:42.819Z,47.01
2023-05-18T13:21:49.059Z,45.86
2023-05-18T13:26:53.794Z,45.83
2023-05-18T13:31:57.056Z,45.80
2023-05-18T13:42:07.570Z,44.91
2023-05-18T13:47:10.888Z,41.20
2023-05-18T13:52:13.932Z,43.33
2023-05-18T13:57:18.337Z,46.58
2023-05-18T14:02:21.437Z,42.98
2023-05-18T14:07:25.156Z,45.08
2023-05-18T14:12:29.734Z,45.74
2023-05-18T14:17:33.052Z,48.32
2023-05-18T14:22:36.348Z,47.78
2023-05-18T14:27:40.892Z,46.90
2023-05-18T14:32:44.349Z,45.16
2023-05-18T14:37:47.556Z,45.50
2023-05-18T14:42:53.776Z,44.67
2023-05-18T14:47:57.423Z,45.87
2023-05-18T14:53:00.665Z,47.27
2023-05-18T14:58:06.496Z,44.17
2023-05-18T15:03:10.109Z,45.80
2023-05-18T15:08:14.469Z,44.63
2023-05-18T15:13:19.042Z,47.65
2023-05-18T15:18:22.164Z,47.83
2023-05-18T15:23:26.327Z,44.34
2023-05-18T15:28:31.075Z,44.51
2023-05-18T15:33:36.083Z,45.95
2023-05-18T15:38:39.579Z,44.85
2023-05-18T15:43:45.408Z,43.07
2023-05-18T15:48:48.545Z,44.97
2023-05-18T15:53:51.587Z,44.31
2023-05-18T15:59:01.742Z,42.05
2023-05-18T16:04:05.012Z,41.76
2023-05-18T16:09:08.393Z,43.77
2023-05-18T16:14:13.147Z,40.87
2023-05-18T16:19:18.051Z,45.00
2023-05-18T16:24:21.211Z,45.00
2023-05-18T16:29:25.744Z,43.65
2023-05-18T16:34:28.864Z,44.62
2023-05-18T16:39:31.899Z,44.29
2023-05-18T16:44:36.932Z,44.82
2023-05-18T16:49:40.294Z,42.02
2023-05-18T16:54:43.458Z,43.97
2023-05-18T16:59:47.995Z,43.04
2023-05-18T17:04:51.539Z,44.30
2023-05-18T17:09:54.820Z,45.12
2023-05-18T17:14:59.579Z,45.61
2023-05-18T17:20:02.741Z,42.57
2023-05-18T17:25:06.231Z,45.02
2023-05-18T17:30:11.887Z,41.19
2023-05-18T17:35:15.241Z,44.15
2023-05-18T17:40:24.878Z,45.10
2023-05-18T17:45:29.563Z,46.15
2023-05-18T17:50:34.780Z,47.90
2023-05-18T17:55:37.976Z,48.15
2023-05-18T18:00:42.443Z,45.98
2023-05-18T18:05:45.574Z,47.96
2023-05-18T18:10:48.615Z,48.13
2023-05-18T18:15:53.149Z,46.01
2023-05-18T18:20:56.527Z,48.33
2023-05-18T18:26:00.196Z,48.34
2023-05-18T18:31:04.910Z,47.02
2023-05-18T18:36:08.830Z,48.42
2023-05-18T18:41:13.490Z,49.36
2023-05-18T18:46:18.229Z,49.04
2023-05-18T18:51:21.364Z,50.63
2023-05-18T18:56:27.314Z,50.57
2023-05-18T19:01:31.843Z,51.45
2023-05-18T19:06:36.764Z,51.42
2023-05-18T19:11:39.906Z,51.60
2023-05-18T19:16:44.505Z,52.41
2023-05-18T19:21:47.773Z,53.52
2023-05-18T19:26:51.160Z,53.87
2023-05-18T19:31:57.642Z,54.95
2023-05-18T19:37:00.804Z,55.46
2023-05-18T19:42:04.143Z,55.48
2023-05-18T19:47:08.794Z,55.88
2023-05-18T19:52:11.883Z,57.11
2023-05-18T19:57:15.114Z,57.86
2023-05-18T20:02:19.853Z,58.02
2023-05-18T20:07:24.084Z,58.90
2023-05-18T20:12:28.418Z,59.70
2023-05-18T20:17:33.190Z,61.21
2023-05-18T20:22:36.417Z,62.69
2023-05-18T20:27:39.600Z,63.82
2023-05-18T20:32:44.104Z,64.47
2023-05-18T20:37:47.361Z,64.76
2023-05-18T20:42:54.391Z,65.29
2023-05-18T20:48:00.446Z,65.56
2023-05-18T20:53:03.736Z,65.85
2023-05-18T20:58:07.269Z,66.69
2023-05-18T21:03:14.281Z,66.29
2023-05-18T21:08:17.588Z,67.41
2023-05-18T21:13:20.734Z,68.22
2023-05-18T21:18:25.374Z,68.66
2023-05-18T21:23:29.685Z,69.27
2023-05-18T21:28:32.799Z,70.13
2023-05-18T21:33:37.271Z,69.88
2023-05-18T21:38:40.476Z,69.59
2023-05-18T21:43:43.620Z,69.92
2023-05-18T21:48:49.417Z,70.94
2023-05-18T21:53:52.799Z,70.66
2023-05-18T21:58:56.928Z,70.35
2023-05-18T22:04:01.832Z,69.95
2023-05-18T22:09:06.131Z,70.37
2023-05-18T22:14:09.319Z,70.03
2023-05-18T22:19:13.950Z,71.16
2023-05-18T22:24:17.109Z,70.57
2023-05-18T22:29:20.416Z,70.79
2023-05-18T22:34:24.868Z,70.82
2023-05-18T22:39:27.825Z,71.29
2023-05-18T22:44:31.309Z,70.93
2023-05-18T22:49:36.099Z,74.29
2023-05-18T22:54:39.288Z,74.76
2023-05-18T22:59:42.483Z,75.05
2023-05-18T23:04:47.227Z,74.42
2023-05-18T23:09:52.270Z,76.06
2023-05-18T23:14:55.805Z,79.61
2023-05-18T23:20:07.423Z,79.96
2023-05-18T23:25:11.278Z,81.63
2023-05-18T23:30:14.699Z,82.13
2023-05-18T23:35:20.152Z,84.19
2023-05-18T23:40:23.617Z,84.96
2023-05-18T23:45:27.233Z,86.65
2023-05-18T23:50:32.926Z,87.10
2023-05-18T23:55:37.635Z,86.21
